»·PEaware :: N973SE KSBP-KBFL

N973SE :: KSBP-KBFL

FLIGHT INFORMATION

Flight Status: Arrived
Operator: Privately registered:
United States
More flights under this callsign
Pilot: Stig E. (4778)
Aircraft: Unknown
(DA62)
More flights by this aircraft type
Origin: KSBP San Luis Co Regl
United States
Destination: KBFL Meadows
United States
More flights between these airports :: More routes between these airports
Route: GMN FASTO2
File this flight plan on PilotEdge
Remarks:
Altitude:
(Current/Filed)
9,500ft
Speed:
(Current/Filed)
160kts
Departed: 10-Jul-18 11:07 PM
Arrived: 11-Jul-18 12:02 AM
Distance/Time
Traveled:
79nm/0:55
Distance/Time
To Go:
Arrived

Flight Plot

Page will automatically refresh every two minutes.

Flight plan parsing failed; only flown route is shown


Map Options




Map Legend


Flown Route
Filed Route
Departure Airport
Arrival Airport
Navaid (VOR, NDB)
Fix

Horizontal Profiles

Position Reports

Time Latitude Longitude Heading Altitude Ground
Speed
10-Jul-18 23:04 35.237233 -120.637278 234 201ft 0kts
10-Jul-18 23:05 35.236965 -120.637663 215 200ft 9kts
10-Jul-18 23:06 35.235424 -120.635519 126 208ft 16kts
10-Jul-18 23:07 35.232936 -120.632880 275 211ft 11kts
10-Jul-18 23:08 35.245865 -120.655765 305 772ft 104kts
10-Jul-18 23:09 35.232871 -120.674329 146 2043ft 89kts
10-Jul-18 23:10 35.217261 -120.649766 123 3238ft 94kts
10-Jul-18 23:11 35.201876 -120.623704 121 4446ft 96kts
10-Jul-18 23:12 35.193939 -120.592488 103 5642ft 98kts
10-Jul-18 23:13 35.186511 -120.560650 103 6806ft 101kts
10-Jul-18 23:14 35.178628 -120.527450 103 7977ft 104kts
10-Jul-18 23:15 35.170557 -120.493675 103 9124ft 106kts
10-Jul-18 23:16 35.160967 -120.452462 103 9515ft 153kts
10-Jul-18 23:17 35.148885 -120.398631 103 9511ft 170kts
10-Jul-18 23:18 35.136508 -120.342337 103 9513ft 173kts
10-Jul-18 23:19 35.124031 -120.285177 104 9516ft 174kts
10-Jul-18 23:20 35.111553 -120.227952 104 9518ft 174kts
10-Jul-18 23:21 35.099026 -120.170541 103 9519ft 175kts
10-Jul-18 23:22 35.086487 -120.113201 103 9521ft 175kts
10-Jul-18 23:23 35.073864 -120.055620 103 9523ft 175kts
10-Jul-18 23:24 35.061166 -119.997844 103 9526ft 176kts
10-Jul-18 23:25 35.048441 -119.940093 103 9527ft 176kts
10-Jul-18 23:26 35.035612 -119.882027 103 9527ft 177kts
10-Jul-18 23:27 35.022807 -119.824210 103 9527ft 177kts
10-Jul-18 23:28 35.009915 -119.766136 103 9527ft 177kts
10-Jul-18 23:29 34.996980 -119.708020 103 9518ft 178kts
10-Jul-18 23:30 34.983955 -119.649637 103 9506ft 178kts
10-Jul-18 23:31 34.970901 -119.591257 103 9495ft 178kts
10-Jul-18 23:32 34.958088 -119.534143 103 9485ft 176kts
10-Jul-18 23:33 34.945269 -119.477057 103 9517ft 174kts
10-Jul-18 23:34 34.932364 -119.419766 102 9515ft 175kts
10-Jul-18 23:35 34.919430 -119.362493 102 9510ft 176kts
10-Jul-18 23:36 34.906215 -119.305290 103 9505ft 177kts
10-Jul-18 23:37 34.892888 -119.247619 103 9499ft 177kts
10-Jul-18 23:38 34.879596 -119.189779 103 9499ft 177kts
10-Jul-18 23:39 34.866389 -119.132005 103 9502ft 177kts
10-Jul-18 23:40 34.853190 -119.074285 103 9505ft 177kts
10-Jul-18 23:41 34.839966 -119.016586 103 9521ft 176kts
10-Jul-18 23:42 34.826847 -118.959498 102 9573ft 174kts
10-Jul-18 23:43 34.813789 -118.902755 102 9624ft 173kts
10-Jul-18 23:44 34.807332 -118.846968 48 9675ft 164kts
10-Jul-18 23:45 34.850171 -118.854561 340 9673ft 169kts
10-Jul-18 23:46 34.895916 -118.860698 0 9662ft 167kts
10-Jul-18 23:47 34.942349 -118.861094 0 9591ft 167kts
10-Jul-18 23:48 34.989099 -118.861121 0 8973ft 169kts
10-Jul-18 23:49 35.036024 -118.861035 0 8350ft 169kts
10-Jul-18 23:50 35.082556 -118.860915 0 7608ft 167kts
10-Jul-18 23:51 35.128288 -118.860786 0 6701ft 165kts
10-Jul-18 23:52 35.173902 -118.860650 0 5808ft 163kts
10-Jul-18 23:53 35.218966 -118.860589 359 4934ft 161kts
10-Jul-18 23:54 35.259078 -118.861053 359 4854ft 118kts
10-Jul-18 23:55 35.284446 -118.876707 317 4522ft 108kts
10-Jul-18 23:56 35.306486 -118.902837 317 3973ft 112kts
10-Jul-18 23:57 35.328894 -118.929717 316 3364ft 111kts
10-Jul-18 23:58 35.349959 -118.955061 317 2775ft 104kts
10-Jul-18 23:59 35.370335 -118.979591 317 2214ft 102kts
11-Jul-18 00:00 35.390026 -119.003330 317 1670ft 97kts
11-Jul-18 00:01 35.409068 -119.026286 317 1153ft 96kts
11-Jul-18 00:02 35.427911 -119.049071 317 666ft 88kts
11-Jul-18 00:03 35.438237 -119.059352 108 497ft 18kts
11-Jul-18 00:04 35.437947 -119.056479 134 497ft 0kts
11-Jul-18 00:05 35.437947 -119.056479 134 497ft 0kts
11-Jul-18 00:06 35.437947 -119.056479 134 497ft 0kts
11-Jul-18 00:07 35.437947 -119.056479 134 497ft 0kts
11-Jul-18 00:08 35.437947 -119.056479 134 497ft 0kts
11-Jul-18 00:09 35.437947 -119.056479 134 497ft 0kts
11-Jul-18 00:10 35.437947 -119.056479 134 497ft 0kts
11-Jul-18 00:11 35.437947 -119.056479 134 497ft 0kts
11-Jul-18 00:12 35.437947 -119.056479 134 497ft 0kts
11-Jul-18 00:13 35.437947 -119.056479 134 497ft 0kts
11-Jul-18 00:14 35.437947 -119.056479 134 497ft 0kts
11-Jul-18 00:15 35.437947 -119.056479 134 497ft 0kts
11-Jul-18 00:16 35.437947 -119.056479 134 497ft 0kts

Navigation Log

Ident Type
Flight plan parsing failed, navigation log unavailable